Terminal Aerodrome Forecast
Issued by NWS

Home | Current Version | Previous Version | Text Only | Print | Product List | Glossary On
Versions: 1 2 3 4 5 6 7 8 9 10 11 12 13 14 15 16 17 18 19 20 21 22 23
000
FTUS46 KSEW 280500
TAFOLM
TAF
KOLM 280537Z 2806/2906 18012G22KT 4SM -RA BR SCT009 OVC025
      TEMPO 2814/2818 3SM RA OVC009
     FM281800 20010KT 5SM -RA BR BKN012 OVC020
     FM290000 23008KT P6SM BKN030=

USA.gov is the U.S. government's official web portal to all federal, state and local government web resources and services.